sensor_id;sensor_type;location;lat;lon;timestamp;P1;durP1;ratioP1;P2;durP2;ratioP2
44197;SDS011;30157;55.512;37.764;2022-08-20T00:01:45;21.27;;;13.98;;
44197;SDS011;30157;55.512;37.764;2022-08-20T00:04:12;25.45;;;15.20;;
44197;SDS011;30157;55.512;37.764;2022-08-20T00:06:38;21.38;;;13.77;;
44197;SDS011;30157;55.512;37.764;2022-08-20T00:09:05;23.25;;;14.65;;
44197;SDS011;30157;55.512;37.764;2022-08-20T00:11:31;25.00;;;14.95;;
44197;SDS011;30157;55.512;37.764;2022-08-20T00:13:58;21.70;;;14.65;;
44197;SDS011;30157;55.512;37.764;2022-08-20T00:16:30;23.38;;;15.85;;
44197;SDS011;30157;55.512;37.764;2022-08-20T00:19:01;20.88;;;14.73;;
44197;SDS011;30157;55.512;37.764;2022-08-20T00:21:30;25.90;;;15.95;;
44197;SDS011;30157;55.512;37.764;2022-08-20T00:23:56;26.25;;;17.17;;
44197;SDS011;30157;55.512;37.764;2022-08-20T00:26:22;26.70;;;15.88;;
44197;SDS011;30157;55.512;37.764;2022-08-20T00:28:49;25.48;;;17.13;;
44197;SDS011;30157;55.512;37.764;2022-08-20T00:31:17;25.08;;;16.30;;
44197;SDS011;30157;55.512;37.764;2022-08-20T00:33:45;25.23;;;17.05;;
44197;SDS011;30157;55.512;37.764;2022-08-20T00:36:12;28.08;;;18.27;;
44197;SDS011;30157;55.512;37.764;2022-08-20T00:38:41;27.00;;;17.65;;
44197;SDS011;30157;55.512;37.764;2022-08-20T00:41:10;29.55;;;17.58;;
44197;SDS011;30157;55.512;37.764;2022-08-20T00:43:42;28.27;;;18.35;;
44197;SDS011;30157;55.512;37.764;2022-08-20T00:48:38;29.58;;;18.10;;
44197;SDS011;30157;55.512;37.764;2022-08-20T00:53:36;30.80;;;19.80;;
44197;SDS011;30157;55.512;37.764;2022-08-20T00:56:06;31.05;;;19.50;;
44197;SDS011;30157;55.512;37.764;2022-08-20T00:58:35;32.83;;;21.05;;
44197;SDS011;30157;55.512;37.764;2022-08-20T01:01:03;31.63;;;20.27;;
44197;SDS011;30157;55.512;37.764;2022-08-20T01:03:31;29.85;;;19.55;;
44197;SDS011;30157;55.512;37.764;2022-08-20T01:05:57;30.65;;;20.35;;
44197;SDS011;30157;55.512;37.764;2022-08-20T01:08:23;30.52;;;19.70;;
44197;SDS011;30157;55.512;37.764;2022-08-20T01:10:51;31.10;;;19.80;;
44197;SDS011;30157;55.512;37.764;2022-08-20T01:13:28;30.67;;;19.45;;
44197;SDS011;30157;55.512;37.764;2022-08-20T01:15:56;32.28;;;19.13;;
44197;SDS011;30157;55.512;37.764;2022-08-20T01:18:25;30.98;;;19.05;;
44197;SDS011;30157;55.512;37.764;2022-08-20T01:26:07;30.95;;;18.75;;
44197;SDS011;30157;55.512;37.764;2022-08-20T01:28:42;29.30;;;19.13;;
44197;SDS011;30157;55.512;37.764;2022-08-20T01:31:21;27.73;;;19.73;;
44197;SDS011;30157;55.512;37.764;2022-08-20T01:33:50;27.98;;;18.88;;
44197;SDS011;30157;55.512;37.764;2022-08-20T01:36:20;25.27;;;17.88;;
44197;SDS011;30157;55.512;37.764;2022-08-20T01:38:49;27.60;;;19.25;;
44197;SDS011;30157;55.512;37.764;2022-08-20T01:43:47;24.73;;;16.70;;
44197;SDS011;30157;55.512;37.764;2022-08-20T01:46:15;30.98;;;18.40;;
44197;SDS011;30157;55.512;37.764;2022-08-20T01:48:42;23.25;;;15.23;;
44197;SDS011;30157;55.512;37.764;2022-08-20T01:51:12;24.83;;;16.10;;
44197;SDS011;30157;55.512;37.764;2022-08-20T01:53:42;25.02;;;15.65;;
44197;SDS011;30157;55.512;37.764;2022-08-20T01:56:12;22.20;;;14.93;;
44197;SDS011;30157;55.512;37.764;2022-08-20T01:58:40;23.55;;;14.55;;
44197;SDS011;30157;55.512;37.764;2022-08-20T02:01:17;22.80;;;14.23;;
44197;SDS011;30157;55.512;37.764;2022-08-20T02:03:57;22.40;;;14.85;;
44197;SDS011;30157;55.512;37.764;2022-08-20T02:06:26;20.73;;;13.18;;
44197;SDS011;30157;55.512;37.764;2022-08-20T02:08:54;20.42;;;13.57;;
44197;SDS011;30157;55.512;37.764;2022-08-20T02:11:22;19.23;;;13.85;;
44197;SDS011;30157;55.512;37.764;2022-08-20T02:13:48;17.88;;;13.00;;
44197;SDS011;30157;55.512;37.764;2022-08-20T02:16:21;17.65;;;11.57;;
44197;SDS011;30157;55.512;37.764;2022-08-20T02:18:52;17.17;;;11.45;;
44197;SDS011;30157;55.512;37.764;2022-08-20T02:21:22;21.30;;;12.48;;
44197;SDS011;30157;55.512;37.764;2022-08-20T02:23:49;16.52;;;11.00;;
44197;SDS011;30157;55.512;37.764;2022-08-20T02:26:15;17.33;;;12.45;;
44197;SDS011;30157;55.512;37.764;2022-08-20T02:28:47;17.23;;;10.95;;
44197;SDS011;30157;55.512;37.764;2022-08-20T02:31:15;19.13;;;12.30;;
44197;SDS011;30157;55.512;37.764;2022-08-20T02:33:43;17.58;;;11.38;;
44197;SDS011;30157;55.512;37.764;2022-08-20T02:36:10;18.58;;;11.57;;
44197;SDS011;30157;55.512;37.764;2022-08-20T02:38:39;16.77;;;11.77;;
44197;SDS011;30157;55.512;37.764;2022-08-20T02:41:06;20.50;;;11.75;;
44197;SDS011;30157;55.512;37.764;2022-08-20T02:43:33;18.70;;;12.07;;
44197;SDS011;30157;55.512;37.764;2022-08-20T02:45:59;19.65;;;11.32;;
44197;SDS011;30157;55.512;37.764;2022-08-20T02:48:27;15.00;;;11.23;;
44197;SDS011;30157;55.512;37.764;2022-08-20T02:50:56;19.40;;;10.88;;
44197;SDS011;30157;55.512;37.764;2022-08-20T02:53:26;18.27;;;12.82;;
44197;SDS011;30157;55.512;37.764;2022-08-20T02:55:54;22.63;;;14.80;;
44197;SDS011;30157;55.512;37.764;2022-08-20T02:58:21;23.40;;;15.30;;
44197;SDS011;30157;55.512;37.764;2022-08-20T03:00:47;23.50;;;16.58;;
44197;SDS011;30157;55.512;37.764;2022-08-20T03:03:14;24.83;;;16.85;;
44197;SDS011;30157;55.512;37.764;2022-08-20T03:05:46;29.65;;;19.20;;
44197;SDS011;30157;55.512;37.764;2022-08-20T03:08:14;36.22;;;25.48;;
44197;SDS011;30157;55.512;37.764;2022-08-20T03:10:41;40.78;;;25.77;;
44197;SDS011;30157;55.512;37.764;2022-08-20T03:13:08;44.17;;;30.13;;
44197;SDS011;30157;55.512;37.764;2022-08-20T03:15:42;46.50;;;30.00;;
44197;SDS011;30157;55.512;37.764;2022-08-20T03:18:13;45.10;;;30.48;;
44197;SDS011;30157;55.512;37.764;2022-08-20T03:20:41;45.03;;;32.95;;
44197;SDS011;30157;55.512;37.764;2022-08-20T03:23:08;43.92;;;31.52;;
44197;SDS011;30157;55.512;37.764;2022-08-20T03:25:34;42.90;;;29.50;;
44197;SDS011;30157;55.512;37.764;2022-08-20T03:28:00;41.72;;;26.50;;
44197;SDS011;30157;55.512;37.764;2022-08-20T03:30:27;38.17;;;26.73;;
44197;SDS011;30157;55.512;37.764;2022-08-20T03:32:53;35.10;;;24.75;;
44197;SDS011;30157;55.512;37.764;2022-08-20T03:35:20;37.05;;;25.48;;
44197;SDS011;30157;55.512;37.764;2022-08-20T03:37:47;34.17;;;24.10;;
44197;SDS011;30157;55.512;37.764;2022-08-20T03:40:15;38.78;;;24.60;;
44197;SDS011;30157;55.512;37.764;2022-08-20T03:42:43;35.80;;;24.48;;
44197;SDS011;30157;55.512;37.764;2022-08-20T03:45:10;34.88;;;23.73;;
44197;SDS011;30157;55.512;37.764;2022-08-20T03:47:38;34.15;;;22.27;;
44197;SDS011;30157;55.512;37.764;2022-08-20T03:50:06;32.85;;;21.83;;
44197;SDS011;30157;55.512;37.764;2022-08-20T03:52:34;34.22;;;21.52;;
44197;SDS011;30157;55.512;37.764;2022-08-20T03:55:00;34.25;;;22.83;;
44197;SDS011;30157;55.512;37.764;2022-08-20T03:57:26;35.33;;;24.05;;
44197;SDS011;30157;55.512;37.764;2022-08-20T03:59:54;38.75;;;25.13;;
44197;SDS011;30157;55.512;37.764;2022-08-20T04:02:20;36.70;;;25.00;;
44197;SDS011;30157;55.512;37.764;2022-08-20T04:04:46;40.53;;;26.17;;
44197;SDS011;30157;55.512;37.764;2022-08-20T04:07:13;40.45;;;26.10;;
44197;SDS011;30157;55.512;37.764;2022-08-20T04:09:53;40.33;;;26.20;;
44197;SDS011;30157;55.512;37.764;2022-08-20T04:12:21;35.60;;;25.48;;
44197;SDS011;30157;55.512;37.764;2022-08-20T04:14:48;39.65;;;24.75;;
44197;SDS011;30157;55.512;37.764;2022-08-20T04:17:15;38.30;;;25.48;;
44197;SDS011;30157;55.512;37.764;2022-08-20T04:19:42;40.08;;;25.48;;
44197;SDS011;30157;55.512;37.764;2022-08-20T04:22:08;37.80;;;23.88;;
44197;SDS011;30157;55.512;37.764;2022-08-20T04:24:38;34.78;;;24.75;;
44197;SDS011;30157;55.512;37.764;2022-08-20T04:27:05;36.72;;;24.42;;
44197;SDS011;30157;55.512;37.764;2022-08-20T04:29:32;33.55;;;22.38;;
44197;SDS011;30157;55.512;37.764;2022-08-20T04:31:59;31.73;;;21.23;;
44197;SDS011;30157;55.512;37.764;2022-08-20T04:34:27;35.38;;;22.55;;
44197;SDS011;30157;55.512;37.764;2022-08-20T04:36:53;32.17;;;21.55;;
44197;SDS011;30157;55.512;37.764;2022-08-20T04:39:19;33.83;;;22.50;;
44197;SDS011;30157;55.512;37.764;2022-08-20T04:41:45;28.42;;;21.88;;
44197;SDS011;30157;55.512;37.764;2022-08-20T04:44:11;32.05;;;20.67;;
44197;SDS011;30157;55.512;37.764;2022-08-20T04:46:37;33.65;;;21.50;;
44197;SDS011;30157;55.512;37.764;2022-08-20T04:49:04;29.77;;;21.02;;
44197;SDS011;30157;55.512;37.764;2022-08-20T04:51:31;28.10;;;20.00;;
44197;SDS011;30157;55.512;37.764;2022-08-20T04:53:59;31.23;;;20.50;;
44197;SDS011;30157;55.512;37.764;2022-08-20T04:56:27;31.83;;;20.35;;
44197;SDS011;30157;55.512;37.764;2022-08-20T04:58:56;32.38;;;21.42;;
44197;SDS011;30157;55.512;37.764;2022-08-20T05:01:23;30.15;;;20.17;;
44197;SDS011;30157;55.512;37.764;2022-08-20T05:03:50;32.90;;;21.35;;
44197;SDS011;30157;55.512;37.764;2022-08-20T05:06:21;30.30;;;21.02;;
44197;SDS011;30157;55.512;37.764;2022-08-20T05:08:49;28.67;;;20.63;;
44197;SDS011;30157;55.512;37.764;2022-08-20T05:11:14;33.85;;;21.73;;
44197;SDS011;30157;55.512;37.764;2022-08-20T05:13:40;31.73;;;21.50;;
44197;SDS011;30157;55.512;37.764;2022-08-20T05:16:07;34.80;;;22.33;;
44197;SDS011;30157;55.512;37.764;2022-08-20T05:18:33;32.50;;;21.60;;
44197;SDS011;30157;55.512;37.764;2022-08-20T05:21:00;37.63;;;20.88;;
44197;SDS011;30157;55.512;37.764;2022-08-20T05:23:33;36.45;;;21.58;;
44197;SDS011;30157;55.512;37.764;2022-08-20T05:26:00;30.35;;;20.55;;
44197;SDS011;30157;55.512;37.764;2022-08-20T05:28:32;32.20;;;20.85;;
44197;SDS011;30157;55.512;37.764;2022-08-20T05:31:00;28.70;;;19.55;;
44197;SDS011;30157;55.512;37.764;2022-08-20T05:33:27;28.38;;;20.27;;
44197;SDS011;30157;55.512;37.764;2022-08-20T05:35:54;29.20;;;19.13;;
44197;SDS011;30157;55.512;37.764;2022-08-20T05:38:22;27.20;;;18.80;;
44197;SDS011;30157;55.512;37.764;2022-08-20T05:40:49;27.73;;;18.58;;
44197;SDS011;30157;55.512;37.764;2022-08-20T05:43:16;32.63;;;19.65;;
44197;SDS011;30157;55.512;37.764;2022-08-20T05:45:43;26.45;;;17.38;;
44197;SDS011;30157;55.512;37.764;2022-08-20T05:48:12;28.83;;;17.75;;
44197;SDS011;30157;55.512;37.764;2022-08-20T05:50:40;24.85;;;17.15;;
44197;SDS011;30157;55.512;37.764;2022-08-20T05:53:08;27.40;;;17.20;;
44197;SDS011;30157;55.512;37.764;2022-08-20T05:55:37;24.08;;;16.60;;
44197;SDS011;30157;55.512;37.764;2022-08-20T05:58:07;27.95;;;17.25;;
44197;SDS011;30157;55.512;37.764;2022-08-20T06:00:38;21.95;;;15.35;;
44197;SDS011;30157;55.512;37.764;2022-08-20T06:03:04;22.75;;;14.82;;
44197;SDS011;30157;55.512;37.764;2022-08-20T06:05:49;20.55;;;14.10;;
44197;SDS011;30157;55.512;37.764;2022-08-20T06:08:15;19.50;;;13.77;;
44197;SDS011;30157;55.512;37.764;2022-08-20T06:10:41;21.23;;;14.23;;
44197;SDS011;30157;55.512;37.764;2022-08-20T06:13:08;19.85;;;12.90;;
44197;SDS011;30157;55.512;37.764;2022-08-20T06:15:35;18.33;;;12.63;;
44197;SDS011;30157;55.512;37.764;2022-08-20T06:18:01;18.75;;;12.13;;
44197;SDS011;30157;55.512;37.764;2022-08-20T06:20:32;20.35;;;11.68;;
44197;SDS011;30157;55.512;37.764;2022-08-20T06:23:02;17.88;;;11.77;;
44197;SDS011;30157;55.512;37.764;2022-08-20T06:25:29;16.60;;;11.88;;
44197;SDS011;30157;55.512;37.764;2022-08-20T06:27:58;17.85;;;10.88;;
44197;SDS011;30157;55.512;37.764;2022-08-20T06:30:24;18.13;;;10.13;;
44197;SDS011;30157;55.512;37.764;2022-08-20T06:32:49;16.98;;;10.05;;
44197;SDS011;30157;55.512;37.764;2022-08-20T06:35:15;13.32;;;10.05;;
44197;SDS011;30157;55.512;37.764;2022-08-20T06:37:41;19.45;;;10.15;;
44197;SDS011;30157;55.512;37.764;2022-08-20T06:40:14;14.63;;;9.25;;
44197;SDS011;30157;55.512;37.764;2022-08-20T06:42:43;12.63;;;8.80;;
44197;SDS011;30157;55.512;37.764;2022-08-20T06:45:13;13.30;;;9.23;;
44197;SDS011;30157;55.512;37.764;2022-08-20T06:47:42;17.55;;;9.77;;
44197;SDS011;30157;55.512;37.764;2022-08-20T06:50:10;15.07;;;9.18;;
44197;SDS011;30157;55.512;37.764;2022-08-20T06:52:38;19.52;;;10.13;;
44197;SDS011;30157;55.512;37.764;2022-08-20T06:55:06;14.65;;;9.23;;
44197;SDS011;30157;55.512;37.764;2022-08-20T06:57:34;11.07;;;8.27;;
44197;SDS011;30157;55.512;37.764;2022-08-20T07:00:01;14.57;;;8.95;;
44197;SDS011;30157;55.512;37.764;2022-08-20T07:02:29;18.00;;;9.40;;
44197;SDS011;30157;55.512;37.764;2022-08-20T07:04:55;15.05;;;8.68;;
44197;SDS011;30157;55.512;37.764;2022-08-20T07:07:21;14.80;;;9.05;;
44197;SDS011;30157;55.512;37.764;2022-08-20T07:09:46;19.38;;;9.45;;
44197;SDS011;30157;55.512;37.764;2022-08-20T07:12:12;16.63;;;10.38;;
44197;SDS011;30157;55.512;37.764;2022-08-20T07:14:38;18.00;;;10.95;;
44197;SDS011;30157;55.512;37.764;2022-08-20T07:17:04;15.43;;;9.60;;
44197;SDS011;30157;55.512;37.764;2022-08-20T07:19:31;16.70;;;9.40;;
44197;SDS011;30157;55.512;37.764;2022-08-20T07:21:57;15.43;;;9.10;;
44197;SDS011;30157;55.512;37.764;2022-08-20T07:24:23;11.98;;;8.90;;
44197;SDS011;30157;55.512;37.764;2022-08-20T07:26:49;14.98;;;9.25;;
44197;SDS011;30157;55.512;37.764;2022-08-20T07:29:16;15.57;;;9.70;;
44197;SDS011;30157;55.512;37.764;2022-08-20T07:31:43;15.05;;;9.00;;
44197;SDS011;30157;55.512;37.764;2022-08-20T07:34:27;14.35;;;9.95;;
44197;SDS011;30157;55.512;37.764;2022-08-20T07:36:57;15.48;;;9.32;;
44197;SDS011;30157;55.512;37.764;2022-08-20T07:39:24;13.75;;;9.43;;
44197;SDS011;30157;55.512;37.764;2022-08-20T07:41:50;12.98;;;9.48;;
44197;SDS011;30157;55.512;37.764;2022-08-20T07:44:28;14.32;;;9.40;;
44197;SDS011;30157;55.512;37.764;2022-08-20T07:46:54;15.00;;;9.63;;
44197;SDS011;30157;55.512;37.764;2022-08-20T07:49:23;18.90;;;10.55;;
44197;SDS011;30157;55.512;37.764;2022-08-20T07:51:49;20.15;;;9.73;;
44197;SDS011;30157;55.512;37.764;2022-08-20T07:54:14;14.85;;;9.73;;
44197;SDS011;30157;55.512;37.764;2022-08-20T07:56:40;15.82;;;9.23;;
44197;SDS011;30157;55.512;37.764;2022-08-20T07:59:09;17.23;;;9.45;;
44197;SDS011;30157;55.512;37.764;2022-08-20T08:01:38;15.13;;;9.20;;
44197;SDS011;30157;55.512;37.764;2022-08-20T08:04:04;16.50;;;9.52;;
44197;SDS011;30157;55.512;37.764;2022-08-20T08:06:33;14.05;;;9.43;;
44197;SDS011;30157;55.512;37.764;2022-08-20T08:09:07;12.10;;;8.23;;
44197;SDS011;30157;55.512;37.764;2022-08-20T08:11:40;13.10;;;8.43;;
44197;SDS011;30157;55.512;37.764;2022-08-20T08:14:09;17.45;;;9.63;;
44197;SDS011;30157;55.512;37.764;2022-08-20T08:16:36;14.80;;;9.32;;
44197;SDS011;30157;55.512;37.764;2022-08-20T08:19:04;13.85;;;9.40;;
44197;SDS011;30157;55.512;37.764;2022-08-20T08:21:33;13.80;;;9.10;;
44197;SDS011;30157;55.512;37.764;2022-08-20T08:23:59;13.73;;;8.95;;
44197;SDS011;30157;55.512;37.764;2022-08-20T08:26:25;13.00;;;9.27;;
44197;SDS011;30157;55.512;37.764;2022-08-20T08:28:53;14.10;;;8.68;;
44197;SDS011;30157;55.512;37.764;2022-08-20T08:31:19;11.93;;;8.10;;
44197;SDS011;30157;55.512;37.764;2022-08-20T08:33:44;13.25;;;8.18;;
44197;SDS011;30157;55.512;37.764;2022-08-20T08:36:11;10.45;;;7.90;;
44197;SDS011;30157;55.512;37.764;2022-08-20T08:38:40;10.73;;;8.05;;
44197;SDS011;30157;55.512;37.764;2022-08-20T08:43:36;12.23;;;8.30;;
44197;SDS011;30157;55.512;37.764;2022-08-20T08:46:04;14.13;;;8.02;;
44197;SDS011;30157;55.512;37.764;2022-08-20T08:48:38;14.98;;;8.85;;
44197;SDS011;30157;55.512;37.764;2022-08-20T08:53:41;11.60;;;7.70;;
44197;SDS011;30157;55.512;37.764;2022-08-20T08:56:13;11.07;;;7.45;;
44197;SDS011;30157;55.512;37.764;2022-08-20T08:58:40;12.05;;;8.00;;
44197;SDS011;30157;55.512;37.764;2022-08-20T09:01:13;12.65;;;8.25;;
44197;SDS011;30157;55.512;37.764;2022-08-20T09:03:42;13.45;;;8.30;;
44197;SDS011;30157;55.512;37.764;2022-08-20T09:06:12;13.68;;;9.77;;
44197;SDS011;30157;55.512;37.764;2022-08-20T09:08:42;16.70;;;8.60;;
44197;SDS011;30157;55.512;37.764;2022-08-20T09:11:19;15.00;;;9.50;;
44197;SDS011;30157;55.512;37.764;2022-08-20T09:13:47;17.48;;;10.18;;
44197;SDS011;30157;55.512;37.764;2022-08-20T09:16:13;17.92;;;11.52;;
44197;SDS011;30157;55.512;37.764;2022-08-20T09:18:39;15.63;;;11.32;;
44197;SDS011;30157;55.512;37.764;2022-08-20T09:21:05;17.15;;;11.85;;
44197;SDS011;30157;55.512;37.764;2022-08-20T09:23:31;19.33;;;12.20;;
44197;SDS011;30157;55.512;37.764;2022-08-20T09:25:59;20.15;;;13.57;;
44197;SDS011;30157;55.512;37.764;2022-08-20T09:28:25;23.85;;;15.00;;
44197;SDS011;30157;55.512;37.764;2022-08-20T09:30:50;22.42;;;13.63;;
44197;SDS011;30157;55.512;37.764;2022-08-20T09:33:16;20.77;;;14.43;;
44197;SDS011;30157;55.512;37.764;2022-08-20T09:35:42;22.25;;;15.15;;
44197;SDS011;30157;55.512;37.764;2022-08-20T09:38:10;22.73;;;15.73;;
44197;SDS011;30157;55.512;37.764;2022-08-20T09:40:37;22.02;;;16.38;;
44197;SDS011;30157;55.512;37.764;2022-08-20T09:43:06;26.98;;;16.17;;
44197;SDS011;30157;55.512;37.764;2022-08-20T09:45:33;22.88;;;14.95;;
44197;SDS011;30157;55.512;37.764;2022-08-20T09:48:00;24.88;;;16.42;;
44197;SDS011;30157;55.512;37.764;2022-08-20T09:50:28;26.67;;;16.77;;
44197;SDS011;30157;55.512;37.764;2022-08-20T09:52:57;26.77;;;15.57;;
44197;SDS011;30157;55.512;37.764;2022-08-20T09:55:30;22.45;;;16.30;;
44197;SDS011;30157;55.512;37.764;2022-08-20T09:58:04;24.42;;;16.33;;
44197;SDS011;30157;55.512;37.764;2022-08-20T10:00:34;26.38;;;16.65;;
44197;SDS011;30157;55.512;37.764;2022-08-20T10:03:00;24.48;;;15.90;;
44197;SDS011;30157;55.512;37.764;2022-08-20T10:05:27;23.20;;;15.48;;
44197;SDS011;30157;55.512;37.764;2022-08-20T10:07:56;23.75;;;16.52;;
44197;SDS011;30157;55.512;37.764;2022-08-20T10:10:24;27.20;;;17.10;;
44197;SDS011;30157;55.512;37.764;2022-08-20T10:12:50;25.85;;;17.10;;
44197;SDS011;30157;55.512;37.764;2022-08-20T10:15:16;25.08;;;16.73;;
44197;SDS011;30157;55.512;37.764;2022-08-20T10:17:44;27.02;;;16.98;;
44197;SDS011;30157;55.512;37.764;2022-08-20T10:20:12;24.98;;;16.75;;
44197;SDS011;30157;55.512;37.764;2022-08-20T10:22:38;22.30;;;15.57;;
44197;SDS011;30157;55.512;37.764;2022-08-20T10:25:04;30.30;;;18.52;;
44197;SDS011;30157;55.512;37.764;2022-08-20T10:27:31;27.10;;;19.00;;
44197;SDS011;30157;55.512;37.764;2022-08-20T10:30:00;24.02;;;17.63;;
44197;SDS011;30157;55.512;37.764;2022-08-20T10:32:25;23.23;;;17.63;;
44197;SDS011;30157;55.512;37.764;2022-08-20T10:34:51;27.75;;;18.08;;
44197;SDS011;30157;55.512;37.764;2022-08-20T10:37:18;28.83;;;18.73;;
44197;SDS011;30157;55.512;37.764;2022-08-20T10:39:47;23.63;;;18.00;;
44197;SDS011;30157;55.512;37.764;2022-08-20T10:42:13;25.95;;;17.92;;
44197;SDS011;30157;55.512;37.764;2022-08-20T10:44:39;24.92;;;18.02;;
44197;SDS011;30157;55.512;37.764;2022-08-20T10:47:14;24.85;;;18.00;;
44197;SDS011;30157;55.512;37.764;2022-08-20T10:49:48;23.95;;;18.08;;
44197;SDS011;30157;55.512;37.764;2022-08-20T10:52:16;26.00;;;18.40;;
44197;SDS011;30157;55.512;37.764;2022-08-20T10:54:42;22.23;;;14.98;;
44197;SDS011;30157;55.512;37.764;2022-08-20T10:57:11;28.95;;;16.50;;
44197;SDS011;30157;55.512;37.764;2022-08-20T10:59:40;22.88;;;15.35;;
44197;SDS011;30157;55.512;37.764;2022-08-20T11:02:07;21.13;;;13.55;;
44197;SDS011;30157;55.512;37.764;2022-08-20T11:04:33;17.65;;;12.23;;
44197;SDS011;30157;55.512;37.764;2022-08-20T11:07:13;18.80;;;12.00;;
44197;SDS011;30157;55.512;37.764;2022-08-20T11:09:42;17.40;;;11.93;;
44197;SDS011;30157;55.512;37.764;2022-08-20T11:12:09;15.93;;;11.25;;
44197;SDS011;30157;55.512;37.764;2022-08-20T11:14:35;16.20;;;10.70;;
44197;SDS011;30157;55.512;37.764;2022-08-20T11:17:01;15.75;;;9.73;;
44197;SDS011;30157;55.512;37.764;2022-08-20T11:19:28;15.63;;;9.98;;
44197;SDS011;30157;55.512;37.764;2022-08-20T11:21:54;16.48;;;9.52;;
44197;SDS011;30157;55.512;37.764;2022-08-20T11:24:20;17.23;;;9.55;;
44197;SDS011;30157;55.512;37.764;2022-08-20T11:26:46;14.93;;;8.82;;
44197;SDS011;30157;55.512;37.764;2022-08-20T11:29:14;13.18;;;9.05;;
44197;SDS011;30157;55.512;37.764;2022-08-20T11:31:41;13.70;;;8.88;;
44197;SDS011;30157;55.512;37.764;2022-08-20T11:34:07;13.70;;;8.35;;
44197;SDS011;30157;55.512;37.764;2022-08-20T11:36:33;14.55;;;8.63;;
44197;SDS011;30157;55.512;37.764;2022-08-20T11:38:59;15.23;;;8.20;;
44197;SDS011;30157;55.512;37.764;2022-08-20T11:41:25;13.38;;;8.45;;
44197;SDS011;30157;55.512;37.764;2022-08-20T11:43:51;13.48;;;8.90;;
44197;SDS011;30157;55.512;37.764;2022-08-20T11:46:16;12.35;;;7.68;;
44197;SDS011;30157;55.512;37.764;2022-08-20T11:48:42;12.18;;;7.05;;
44197;SDS011;30157;55.512;37.764;2022-08-20T11:51:08;13.45;;;7.80;;
44197;SDS011;30157;55.512;37.764;2022-08-20T11:53:34;11.32;;;7.97;;
44197;SDS011;30157;55.512;37.764;2022-08-20T11:56:00;14.30;;;7.25;;
44197;SDS011;30157;55.512;37.764;2022-08-20T11:58:26;10.50;;;6.80;;
44197;SDS011;30157;55.512;37.764;2022-08-20T12:00:52;11.23;;;7.28;;
44197;SDS011;30157;55.512;37.764;2022-08-20T12:03:17;12.10;;;7.10;;
44197;SDS011;30157;55.512;37.764;2022-08-20T12:05:43;9.80;;;6.65;;
44197;SDS011;30157;55.512;37.764;2022-08-20T12:08:10;10.43;;;6.72;;
44197;SDS011;30157;55.512;37.764;2022-08-20T12:10:37;12.88;;;7.47;;
44197;SDS011;30157;55.512;37.764;2022-08-20T12:13:04;11.90;;;6.75;;
44197;SDS011;30157;55.512;37.764;2022-08-20T12:15:34;8.80;;;6.85;;
44197;SDS011;30157;55.512;37.764;2022-08-20T12:18:04;9.93;;;7.00;;
44197;SDS011;30157;55.512;37.764;2022-08-20T12:20:31;11.35;;;6.68;;
44197;SDS011;30157;55.512;37.764;2022-08-20T12:22:57;9.48;;;6.50;;
44197;SDS011;30157;55.512;37.764;2022-08-20T12:25:23;16.05;;;6.82;;
44197;SDS011;30157;55.512;37.764;2022-08-20T12:27:49;8.73;;;6.10;;
44197;SDS011;30157;55.512;37.764;2022-08-20T12:30:17;10.23;;;5.30;;
44197;SDS011;30157;55.512;37.764;2022-08-20T12:32:46;9.02;;;5.45;;
44197;SDS011;30157;55.512;37.764;2022-08-20T12:35:12;8.75;;;5.60;;
44197;SDS011;30157;55.512;37.764;2022-08-20T12:37:40;10.00;;;5.53;;
44197;SDS011;30157;55.512;37.764;2022-08-20T12:40:11;7.57;;;4.50;;
44197;SDS011;30157;55.512;37.764;2022-08-20T12:42:39;9.35;;;5.32;;
44197;SDS011;30157;55.512;37.764;2022-08-20T12:45:06;9.30;;;6.28;;
44197;SDS011;30157;55.512;37.764;2022-08-20T12:47:36;8.57;;;5.00;;
44197;SDS011;30157;55.512;37.764;2022-08-20T12:50:04;9.77;;;5.47;;
44197;SDS011;30157;55.512;37.764;2022-08-20T12:52:35;13.48;;;5.78;;
44197;SDS011;30157;55.512;37.764;2022-08-20T12:55:02;6.80;;;4.78;;
44197;SDS011;30157;55.512;37.764;2022-08-20T12:57:31;8.63;;;5.07;;
44197;SDS011;30157;55.512;37.764;2022-08-20T13:00:03;7.28;;;4.72;;
44197;SDS011;30157;55.512;37.764;2022-08-20T13:02:35;15.38;;;6.00;;
44197;SDS011;30157;55.512;37.764;2022-08-20T13:05:03;8.80;;;5.57;;
44197;SDS011;30157;55.512;37.764;2022-08-20T13:07:32;9.30;;;5.85;;
44197;SDS011;30157;55.512;37.764;2022-08-20T13:09:59;10.40;;;6.30;;
44197;SDS011;30157;55.512;37.764;2022-08-20T13:12:25;13.07;;;6.68;;
44197;SDS011;30157;55.512;37.764;2022-08-20T13:14:50;10.75;;;6.85;;
44197;SDS011;30157;55.512;37.764;2022-08-20T13:17:17;10.93;;;6.95;;
44197;SDS011;30157;55.512;37.764;2022-08-20T13:19:43;13.45;;;7.75;;
44197;SDS011;30157;55.512;37.764;2022-08-20T13:22:10;11.95;;;7.80;;
44197;SDS011;30157;55.512;37.764;2022-08-20T13:24:37;13.52;;;7.93;;
44197;SDS011;30157;55.512;37.764;2022-08-20T13:27:12;11.52;;;8.00;;
44197;SDS011;30157;55.512;37.764;2022-08-20T13:29:50;12.32;;;8.75;;
44197;SDS011;30157;55.512;37.764;2022-08-20T13:32:17;13.87;;;8.23;;
44197;SDS011;30157;55.512;37.764;2022-08-20T13:34:44;15.93;;;10.20;;
44197;SDS011;30157;55.512;37.764;2022-08-20T13:37:15;14.68;;;8.93;;
44197;SDS011;30157;55.512;37.764;2022-08-20T13:39:43;15.00;;;9.30;;
44197;SDS011;30157;55.512;37.764;2022-08-20T13:42:09;11.85;;;8.20;;
44197;SDS011;30157;55.512;37.764;2022-08-20T13:44:36;17.10;;;9.40;;
44197;SDS011;30157;55.512;37.764;2022-08-20T13:47:22;16.98;;;9.75;;
44197;SDS011;30157;55.512;37.764;2022-08-20T13:50:00;13.23;;;9.02;;
44197;SDS011;30157;55.512;37.764;2022-08-20T13:52:28;13.15;;;9.25;;
44197;SDS011;30157;55.512;37.764;2022-08-20T13:54:54;12.98;;;8.57;;
44197;SDS011;30157;55.512;37.764;2022-08-20T13:57:21;17.25;;;10.02;;
44197;SDS011;30157;55.512;37.764;2022-08-20T13:59:48;14.25;;;9.90;;
44197;SDS011;30157;55.512;37.764;2022-08-20T14:02:16;14.35;;;9.07;;
44197;SDS011;30157;55.512;37.764;2022-08-20T14:04:44;13.77;;;9.30;;
44197;SDS011;30157;55.512;37.764;2022-08-20T14:07:17;15.75;;;9.43;;
44197;SDS011;30157;55.512;37.764;2022-08-20T14:09:46;14.80;;;9.57;;
44197;SDS011;30157;55.512;37.764;2022-08-20T14:12:15;12.88;;;9.25;;
44197;SDS011;30157;55.512;37.764;2022-08-20T14:14:41;13.88;;;8.45;;
44197;SDS011;30157;55.512;37.764;2022-08-20T14:19:53;13.75;;;9.27;;
44197;SDS011;30157;55.512;37.764;2022-08-20T14:22:22;14.43;;;10.13;;
44197;SDS011;30157;55.512;37.764;2022-08-20T14:24:48;13.55;;;9.45;;
44197;SDS011;30157;55.512;37.764;2022-08-20T14:27:16;14.75;;;10.30;;
44197;SDS011;30157;55.512;37.764;2022-08-20T14:29:44;12.68;;;9.50;;
44197;SDS011;30157;55.512;37.764;2022-08-20T14:32:11;12.95;;;9.35;;
44197;SDS011;30157;55.512;37.764;2022-08-20T14:34:37;14.25;;;10.00;;
44197;SDS011;30157;55.512;37.764;2022-08-20T14:37:10;14.48;;;9.18;;
44197;SDS011;30157;55.512;37.764;2022-08-20T14:39:36;14.52;;;10.20;;